Tiempo atmosférico en la estación meteorológica de Torreblanca, Castelló/Castellón (16 m.)



Fecha
DESCASC
Temp. máxima en grados centígrados (hora)
DESCASC
Temp. mínima en grados centígrados (hora)
DESCASC
Temp. media en grados centígrados
DESCASC
Racha de viento máxima en m/sg (hora)
DESCASC
Velocidad máxima media en intervalos de 10 minutos(hora)
DESCASC
Precipitaciones diarias en mm
DESCASC
Precipitaciones de 00:00 a 06:00 en mm
DESCASC
Precipitaciones de 06:00 a 12:00 en mm
DESCASC
Precipitaciones de 12:00 a 18:00 en mm
DESCASC
Precipitaciones de 18:00 a 24:00 en mm
DESCASC
05-04-2020 16.8 (13:10) 8.8 (07:10) 12.8 5.83 (04:50) 4.44 (04:50) 0 0 0 0 0
04-04-2020 16.9 (14:20) 8.4 (06:20) 12.6 6.39 (16:50) 3.89 (07:40) 0 0 0 0 0
03-04-2020 16.4 (12:10) 9.8 (06:00) 13.1 6.67 (06:30) 4.44 (06:30) 0.2 0.2 0 0 0
02-04-2020 14.9 (12:30) 9.6 (00:00) 12.3 10.83 (14:40) 7.22 (14:40) 0 0 0 0 0
01-04-2020 15.1 (17:20) 10.9 (00:00) 13 16.39 (14:20) 10.28 (14:30) 57.4 13.2 26.2 18 0
31-03-2020 12 (13:50) 6.2 (00:00) 9.1 15.28 (14:40) 8.33 (06:40) 80.2 3.8 25.4 45.8 5.2
30-03-2020 14.6 (00:00) 6.6 (00:00) 10.6 12.5 (12:10) 7.5 (11:30) 1.8 0 0.4 0.8 0.6
29-03-2020 19.3 (12:30) 9.8 (00:00) 14.5 9.17 (23:00) 5.83 (23:10) 0 0 0 0 0
28-03-2020 17.3 (14:30) 7.5 (00:00) 12.4 9.17 (13:20) 5.28 (13:20) 0 0 0 0 0
27-03-2020 14.2 (14:00) 7.1 (00:00) 10.6 7.78 (14:10) 4.72 (07:10) 0 0 0 0 0
26-03-2020 15.3 (11:30) 5.9 (00:00) 10.6 13.33 (12:00) 7.22 (12:00) 1.4 0 0.2 0.4 0.8
25-03-2020 11.3 (15:40) 7.2 (00:00) 9.3 6.94 (01:50) 4.44 (03:40) 9 3.8 4 1.2 0
24-03-2020 14 (02:50) 10.1 (00:00) 12.1 12.22 (08:50) 7.22 (04:20) 4.8 0.2 1.2 0 3.4
23-03-2020 16.9 (15:00) 12.1 (00:00) 14.5 9.44 (21:30) 5.56 (19:20) 0.4 0.2 0.2 0 0
22-03-2020 15.4 (15:40) 10 (08:40) 12.7 6.39 (10:30) 4.44 (06:10) 11.8 0 10.8 1 0
21-03-2020 15.5 (12:00) 9.5 (00:00) 12.5 7.5 (13:00) 5 (12:50) 0 0 0 0 0
20-03-2020 16.1 (13:00) 9.9 (00:00) 13 8.33 (13:50) 6.11 (13:40) 0 0 0 0 0
19-03-2020 16.4 (13:20) 9.2 (00:00) 12.8 6.94 (07:50) 5 (07:40) 0 0 0 0 0
18-03-2020 15.9 (12:20) 11.1 (00:00) 13.5 7.78 (14:20) 5 (14:10) 0 0 0 0 0
17-03-2020 14.7 (00:00) 12.5 (00:00) 13.6 15.28 (05:00) 9.17 (05:10) 37.6 23.6 13.6 0.4 0
16-03-2020 14.8 (17:20) 12.5 (00:00) 13.7 9.44 (20:20) 5.83 (20:30) 9.8 0 4 5.6 0.2
15-03-2020 17.2 (12:50) 9.9 (00:00) 13.6 7.78 (14:20) 5.83 (14:20) 0 0 0 0 0
14-03-2020 17.9 (12:50) 10.7 (00:00) 14.3 7.22 (07:10) 5.56 (07:10) 0 0 0 0 0
13-03-2020 19 (12:20) 11.1 (00:20) 15.1 8.33 (07:10) 5.28 (07:10) 0 0 0 0 0
12-03-2020 18 (14:50) 10 (00:00) 14 4.72 (15:20) 2.78 (15:20) 0 0 0 0 0
11-03-2020 20.6 (15:10) 10.2 (00:00) 15.4 5.83 (13:30) 3.33 (13:30) 0 0 0 0 0
10-03-2020 16.5 (11:40) 10.1 (00:00) 13.3 17.22 (00:10) 9.44 (00:10) 0 0 0 0 0

Gráficas

Temp. máximas Temp. mínimas Temp. medias Precipitaciones Rachas de viento máximas Velocidades máximas media en intervalos de 10 minutos

Datos horarios

Fecha y hora oficial Temperatura (ºC) Velocidad del viento (km/h) Dirección del viento Racha (km/h) Dirección de racha Precipitación (mm) Presión (hPa) Tendencia (hPa) Humedad (%)
2020-04-08 23:00:00 14.2 5 Noroeste 7 Noroeste 0 -- -- 84
2020-04-08 22:00:00 15.2 2 Noroeste 3 Noroeste 0 -- -- 80
2020-04-08 21:00:00 15.5 0 Calma 5 Sudeste 0 -- -- 77
2020-04-08 20:00:00 15.9 2 Sudeste 7 Sur 0 -- -- 74
2020-04-08 19:00:00 16.3 4 Sudeste 12 Sudeste 0 -- -- 75
2020-04-08 18:00:00 17.4 9 Sudeste 18 Sudeste 0 -- -- 63
2020-04-08 17:00:00 17.6 9 Sudeste 20 Sudeste 0 -- -- 63
2020-04-08 16:00:00 17.4 11 Sudeste 22 Sudeste 0 -- -- 67
2020-04-08 15:00:00 17.9 12 Sudeste 20 Sudeste 0 -- -- 70
2020-04-08 14:00:00 17.8 11 Sudeste 18 Sudeste 0 -- -- 72
2020-04-08 13:00:00 17.9 9 Sudeste 19 Sudeste 0 -- -- 71
2020-04-08 12:00:00 17.3 9 Sudeste 15 Sudeste 0 -- -- 74
2020-04-08 11:00:00 16.3 8 Sudeste 13 Sur 0 -- -- 72
2020-04-08 10:00:00 15.7 3 Sudoeste 13 Noroeste 0 -- -- 70
2020-04-08 09:00:00 13 8 Noroeste 14 Norte 0 -- -- 73
2020-04-08 08:00:00 11.9 4 Norte 12 Noroeste 0 -- -- 78
2020-04-08 07:00:00 12.3 3 Norte 13 Noroeste 0 -- -- 77
2020-04-08 06:00:00 11.9 12 Noroeste 18 Norte 0 -- -- 79
2020-04-08 05:00:00 11.9 12 Noroeste 18 Norte 0 -- -- 79
2020-04-08 04:00:00 11.9 12 Noroeste 20 Noroeste 0 -- -- 79
2020-04-08 03:00:00 11.5 13 Noroeste 17 Noroeste 0 -- -- 85
2020-04-08 02:00:00 11.4 10 Noroeste 16 Noroeste 0 -- -- 86
2020-04-08 01:00:00 11.7 4 Norte 10 Noroeste 0 -- -- 83
2020-04-08 00:00:00 12.1 7 Noroeste 10 Noroeste 0 -- -- 85
2020-04-07 23:00:00 12.5 7 Noroeste 9 Noroeste 0 -- -- 88
2020-04-07 22:00:00 12.5 6 Noroeste 8 Noroeste 0 -- -- 88
2020-04-07 21:00:00 14.7 3 Noroeste 9 Sur 0 -- -- 81
2020-04-07 20:00:00 15.7 7 Sur 14 Sudeste 0 -- -- 78
2020-04-07 19:00:00 16.1 10 Sur 17 Sur 0 -- -- 79
2020-04-07 18:00:00 17.2 12 Sur 20 Sur 0 -- -- 72
2020-04-07 17:00:00 16.8 11 Sur 20 Sudeste 0.2 -- -- 75
2020-04-07 16:00:00 17.2 12 Sur 17 Sur 0 -- -- 71
2020-04-07 15:00:00 17.3 9 Sudeste 15 Sur 0 -- -- 71
2020-04-07 14:00:00 16.4 9 Sur 15 Sudeste 0 -- -- 77
2020-04-07 13:00:00 15.4 6 Sur 13 Sur 0.4 -- -- 85
2020-04-07 12:00:00 15.9 8 Sur 14 Sur 0 -- -- 81
2020-04-07 11:00:00 15.4 8 Sur 17 Sur 0 -- -- 86
2020-04-07 10:00:00 15.5 6 Sudeste 10 Sudeste 0 -- -- 85
2020-04-07 09:00:00 14 0 Calma 5 Noroeste 0 -- -- 89
2020-04-07 08:00:00 13 5 Noroeste 8 Noroeste 0 -- -- 90
2020-04-07 07:00:00 13.1 5 Noroeste 7 Noroeste 0 -- -- 90
2020-04-07 06:00:00 13.2 5 Noroeste 10 Noroeste 0 -- -- 89
2020-04-07 05:00:00 13.2 3 Noroeste 9 Noroeste 0 -- -- 89
2020-04-07 04:00:00 13.2 6 Noroeste 9 Noroeste 0 -- -- 88
2020-04-07 03:00:00 13.2 4 Noroeste 5 Noroeste 0 -- -- 88
2020-04-07 02:00:00 13.7 2 Noroeste 5 Oeste 0 -- -- 86
2020-04-07 01:00:00 14 3 Noroeste 6 Noroeste 0 -- -- 85
2020-04-07 00:00:00 14.2 4 Noroeste 5 Noroeste 0 -- -- 86
2020-04-06 23:00:00 14.6 0 Calma 4 Oeste 0 -- -- 85
2020-04-06 22:00:00 14.8 2 Oeste 5 Oeste 0 -- -- 84
2020-04-06 21:00:00 15 2 Sur 6 Sudeste 0 -- -- 82
2020-04-06 20:00:00 15.1 6 Sudeste 12 Sudeste 0 -- -- 78
2020-04-06 19:00:00 15.6 8 Sur 15 Sur 0 -- -- 77
2020-04-06 18:00:00 15.8 10 Sur 17 Sudeste 0 -- -- 76
2020-04-06 17:00:00 16.4 12 Sur 22 Sur 0 -- -- 71
2020-04-06 16:00:00 17.4 12 Sur 21 Sudeste 0 -- -- 67
2020-04-06 15:00:00 17.4 13 Sur 22 Sudeste 0 -- -- 68
2020-04-06 14:00:00 17.1 12 Sudeste 21 Sur 0 -- -- 72
2020-04-06 13:00:00 16.4 11 Sur 20 Sudeste 0 -- -- 72
2020-04-06 12:00:00 16.9 10 Sudeste 22 Sudeste 0 -- -- 76
2020-04-06 11:00:00 15.5 5 Sur 13 Sur 0 -- -- 77
2020-04-06 10:00:00 13 2 Noroeste 13 Noroeste 0 -- -- 87
2020-04-06 09:00:00 11.6 8 Noroeste 15 Norte 0 -- -- 88
2020-04-06 08:00:00 10.9 8 Noroeste 13 Noroeste 0 -- -- 91
2020-04-06 07:00:00 10.9 6 Noroeste 10 Noroeste 0 -- -- 91
2020-04-06 06:00:00 10.8 7 Noroeste 13 Noroeste 0 -- -- 90
2020-04-06 05:00:00 10.6 9 Noroeste 15 Noroeste 0 -- -- 90
2020-04-06 04:00:00 11 6 Noroeste 10 Norte 0 -- -- 90
2020-04-06 03:00:00 10.7 8 Noroeste 12 Noroeste 0 -- -- 90
2020-04-06 02:00:00 10.8 9 Noroeste 11 Noroeste 0 -- -- 90
2020-04-06 01:00:00 11.2 6 Noroeste 11 Noroeste 0 -- -- 89
2020-04-06 00:00:00 11.1 7 Noroeste 9 Noroeste 0 -- -- 90
2020-04-05 23:00:00 11.1 5 Noroeste 8 Noroeste 0 -- -- 89
2020-04-05 22:00:00 11.6 6 Noroeste 9 Noroeste 0 -- -- 87
2020-04-05 21:00:00 13.1 3 Oeste 10 Sur 0 -- -- 82
2020-04-05 20:00:00 14.8 7 Sur 14 Sur 0 -- -- 75
2020-04-05 19:00:00 15.9 9 Sur 17 Sudeste 0 -- -- 70
2020-04-05 18:00:00 16.4 10 Sudeste 18 Sur 0 -- -- 67
2020-04-05 17:00:00 16.2 11 Sur 21 Sudeste 0 -- -- 69
2020-04-05 16:00:00 15.8 10 Sur 17 Sudeste 0 -- -- 70
2020-04-05 15:00:00 15.9 11 Sudeste 20 Sudeste 0 -- -- 76
2020-04-05 14:00:00 16.7 12 Sudeste 21 Sudeste 0 -- -- 70
2020-04-05 13:00:00 16.7 11 Sudeste 18 Sudeste 0 -- -- 70
2020-04-05 12:00:00 16.2 6 Sur 13 Sudeste 0 -- -- 71
2020-04-05 11:00:00 14.3 3 Sudeste 8 Norte 0 -- -- 81
2020-04-05 10:00:00 12.3 6 Noroeste 12 Noroeste 0 -- -- 78
2020-04-05 09:00:00 10.8 0 Calma 17 Noroeste 0 -- -- 79
2020-04-05 08:00:00 8.8 8 Norte 15 Noroeste 0 -- -- 83
2020-04-05 07:00:00 8.9 11 Noroeste 16 Noroeste 0 -- -- 85
2020-04-05 06:00:00 9.4 8 Noroeste 19 Noroeste 0 -- -- 85
2020-04-05 05:00:00 9.1 15 Noroeste 21 Noroeste 0 -- -- 89
2020-04-05 04:00:00 9.7 13 Noroeste 18 Noroeste 0 -- -- 90
2020-04-05 03:00:00 10.3 12 Noroeste 16 Norte 0 -- -- 89
2020-04-05 02:00:00 10.1 5 Noroeste 8 Noroeste 0 -- -- 92
2020-04-05 01:00:00 10.3 4 Noroeste 8 Oeste 0 -- -- 90
2020-04-05 00:00:00 11.3 3 Sudoeste 13 Noroeste 0 -- -- 88
2020-04-04 23:00:00 11.1 6 Noroeste 13 Noroeste 0 -- -- 90
2020-04-04 22:00:00 11.6 8 Noroeste 10 Noroeste 0 -- -- 89
2020-04-04 21:00:00 13.4 4 Oeste 17 Sur 0 -- -- 84
2020-04-04 20:00:00 14.8 9 Sur 19 Sudeste 0 -- -- 81
2020-04-04 19:00:00 15.6 13 Sur 19 Sur 0 -- -- 74
2020-04-04 18:00:00 16.4 14 Sur 20 Sur 0 -- -- 69
2020-04-04 17:00:00 16.5 12 Sur 23 Sur 0 -- -- 75
2020-04-04 16:00:00 16.2 12 Sudeste 21 Este 0 -- -- 79
2020-04-04 15:00:00 16.8 12 Sudeste 21 Sudeste 0 -- -- 74
2020-04-04 14:00:00 16.7 11 Sudeste 21 Este 0 -- -- 72
2020-04-04 13:00:00 16.6 11 Sudeste 18 Sudeste 0 -- -- 72
2020-04-04 12:00:00 16.1 10 Sudeste 18 Sudeste 0 -- -- 72
2020-04-04 11:00:00 15 6 Sur 10 Sur 0 -- -- 74
2020-04-04 10:00:00 13.1 4 Sudeste 16 Noroeste 0 -- -- 71
2020-04-04 09:00:00 10.3 13 Norte 20 Norte 0 -- -- 71
2020-04-04 08:00:00 9.3 13 Noroeste 20 Norte 0 -- -- 75
2020-04-04 07:00:00 9 10 Noroeste 17 Noroeste 0 -- -- 78
2020-04-04 06:00:00 8.5 11 Noroeste 16 Noroeste 0 -- -- 81
2020-04-04 05:00:00 8.9 12 Noroeste 16 Noroeste 0 -- -- 81
2020-04-04 04:00:00 9.2 9 Noroeste 12 Noroeste 0 -- -- 82
2020-04-04 03:00:00 9.3 5 Noroeste 9 Noroeste 0 -- -- 83
2020-04-04 02:00:00 10.8 2 Oeste 16 Oeste 0 -- -- 78
2020-04-04 01:00:00 10 4 Oeste 12 Noroeste 0 -- -- 81
2020-04-04 00:00:00 10 10 Oeste 13 Oeste 0 -- -- 81
2020-04-03 23:00:00 10.4 8 Noroeste 10 Noroeste 0 -- -- 77
2020-04-03 22:00:00 11 5 Noroeste 9 Oeste 0 -- -- 83
2020-04-03 21:00:00 12.5 4 Noroeste 6 Sur 0 -- -- 78
2020-04-03 20:00:00 14 3 Sudeste 10 Sudeste 0 -- -- 71
2020-04-03 19:00:00 14.5 6 Sur 13 Sudeste 0 -- -- 67
2020-04-03 18:00:00 14.5 6 Sur 18 Sudeste 0 -- -- 66
2020-04-03 17:00:00 15.5 10 Sudeste 20 Sudeste 0 -- -- 62
2020-04-03 16:00:00 15.7 13 Sur 22 Sudeste 0 -- -- 64
2020-04-03 15:00:00 16 12 Sudeste 22 Sur 0 -- -- 65
2020-04-03 14:00:00 16.3 12 Sur 21 Sur 0 -- -- 64
2020-04-03 13:00:00 15.9 9 Sudeste 18 Sudeste 0 -- -- 53
2020-04-03 12:00:00 16.1 8 Sur 17 Sur 0 -- -- 55
2020-04-03 11:00:00 15.4 8 Sur 12 Sur 0 -- -- 58
2020-04-03 10:00:00 12.3 2 Sur 7 Sudoeste 0 -- -- 65
2020-04-03 09:00:00 10.4 3 Sudoeste 18 Noroeste 0 -- -- 70
2020-04-03 08:00:00 10.4 13 Norte 22 Noroeste 0 -- -- 62
2020-04-03 07:00:00 9.9 12 Noroeste 24 Norte 0 -- -- 69
2020-04-03 06:00:00 9.8 7 Norte 12 Noroeste 0 -- -- 80
2020-04-03 05:00:00 10.1 8 Noroeste 12 Norte 0 -- -- 85
2020-04-03 04:00:00 10.7 8 Noroeste 11 Noroeste 0 -- -- 92
2020-04-03 03:00:00 10.8 4 Noroeste 9 Noroeste 0 -- -- 92
2020-04-03 02:00:00 11.3 5 Oeste 13 Noroeste 0.2 -- -- 92
2020-04-03 01:00:00 11.5 8 Norte 12 Noroeste 0 -- -- 90
2020-04-03 00:00:00 11.7 5 Noroeste 6 Noroeste 0 -- -- 90
2020-04-02 23:00:00 11.8 3 Noroeste 5 Noroeste 0 -- -- 91
2020-04-02 22:00:00 11.8 0 Calma 4 Este 0 -- -- 91
2020-04-02 21:00:00 12 0 Calma 5 Este 0 -- -- 89
2020-04-02 20:00:00 12.2 4 Este 10 Este 0 -- -- 85
2020-04-02 19:00:00 12.4 8 Este 23 Este 0 -- -- 84
2020-04-02 18:00:00 13 12 Nordeste 29 Este 0 -- -- 75
2020-04-02 17:00:00 13.4 17 Este 36 Este 0 -- -- 74
2020-04-02 16:00:00 13.7 21 Este 35 Este 0 -- -- 79
2020-04-02 15:00:00 13.6 25 Este 39 Este 0 -- -- 75
2020-04-02 14:00:00 13.8 21 Este 32 Este 0 -- -- 77
2020-04-02 13:00:00 14.6 15 Este 23 Este 0 -- -- 76
2020-04-02 12:00:00 14.5 7 Este 14 Nordeste 0 -- -- 76
2020-04-02 11:00:00 12.4 8 Norte 18 Nordeste 0 -- -- 83
2020-04-02 10:00:00 11.8 6 Norte 14 Norte 0 -- -- 84
2020-04-02 09:00:00 11 7 Norte 12 Noroeste 0 -- -- 86
2020-04-02 08:00:00 10.5 6 Norte 9 Norte 0 -- -- 89
2020-04-02 07:00:00 10.5 3 Este 13 Noroeste 0 -- -- 88
2020-04-02 06:00:00 10.5 8 Norte 18 Norte 0 -- -- 88
2020-04-02 05:00:00 9.9 12 Norte 20 Noroeste 0 -- -- 89
2020-04-02 04:00:00 10.1 9 Norte 16 Norte 0 -- -- 88
2020-04-02 03:00:00 9.8 10 Noroeste 22 Noroeste 0 -- -- 88
2020-04-02 02:00:00 9.9 12 Norte 21 Norte 0 -- -- 89
2020-04-02 01:00:00 11 15 Norte 28 Norte 0 -- -- 84
2020-04-02 00:00:00 11.2 14 Norte 28 Norte 0 -- -- 84
2020-04-01 23:00:00 11.2 15 Norte 26 Nordeste 0 -- -- 83
2020-04-01 22:00:00 11.8 15 Nordeste 39 Nordeste 0 -- -- 78
2020-04-01 21:00:00 11.6 16 Nordeste 38 Norte 0 -- -- 83
2020-04-01 20:00:00 12.2 19 Norte 39 Nordeste 0 -- -- 80
2020-04-01 19:00:00 13.3 24 Norte 39 Norte 0 -- -- 75
2020-04-01 18:00:00 14.4 18 Norte 47 Noroeste 0 -- -- 76
2020-04-01 17:00:00 14.9 19 Norte 41 Norte 0 -- -- 79
2020-04-01 16:00:00 13.7 27 Norte 52 Norte 1.4 -- -- 84
2020-04-01 15:00:00 12.8 29 Norte 59 Norte 8.2 -- -- 91
2020-04-01 14:00:00 11.6 25 Noroeste 42 Norte 7.8 -- -- 94
2020-04-01 13:00:00 12.3 26 Norte 53 Norte 0.6 -- -- 93
2020-04-01 12:00:00 13 25 Nordeste 49 Nordeste 0.2 -- -- 92
2020-04-01 11:00:00 13.1 21 Nordeste 40 Este 0 -- -- 93
2020-04-01 10:00:00 12.7 24 Este 54 Nordeste 2 -- -- 98
2020-04-01 09:00:00 12.5 18 Nordeste 44 Nordeste 6.6 -- -- 99
2020-04-01 08:00:00 12.6 28 Nordeste 42 Nordeste 12.2 -- -- 98
2020-04-01 07:00:00 12.7 19 Nordeste 45 Nordeste 5.2 -- -- 96
2020-04-01 06:00:00 12.3 22 Nordeste 40 Nordeste 6.4 -- -- 96
2020-04-01 05:00:00 12.1 20 Nordeste 34 Nordeste 2.6 -- -- 96
2020-04-01 04:00:00 11.2 19 Norte 34 Norte 3.6 -- -- 97
2020-04-01 03:00:00 11.4 18 Norte 36 Norte 0.6 -- -- 95
2020-04-01 02:00:00 11.2 21 Norte 44 Norte 0 -- -- 93
2020-04-01 01:00:00 11.1 28 Norte 42 Norte 0 -- -- 93
2020-04-01 00:00:00 10.9 25 Norte 40 Nordeste 0 -- -- 93
2020-03-31 23:00:00 10.7 23 Norte 39 Norte 0 -- -- 94
2020-03-31 22:00:00 10.6 20 Norte 44 Norte 0 -- -- 94
2020-03-31 21:00:00 10.5 26 Norte 38 Norte 0.2 -- -- 94
2020-03-31 20:00:00 10.4 22 Norte 39 Norte 0.6 -- -- 94
2020-03-31 19:00:00 10.3 22 Norte 41 Norte 4.4 -- -- 95
2020-03-31 18:00:00 10.3 22 Norte 41 Norte 6 -- -- 95
2020-03-31 17:00:00 10.2 21 Norte 41 Norte 11.6 -- -- 97
2020-03-31 16:00:00 10.1 23 Norte 40 Norte 16.6 -- -- 97
2020-03-31 15:00:00 10.7 14 Norte 55 Nordeste 4.6 -- -- 97
2020-03-31 14:00:00 12 27 Nordeste 46 Este 3.6 -- -- 97
2020-03-31 13:00:00 10.9 16 Nordeste 42 Nordeste 3.4 -- -- 96
2020-03-31 12:00:00 9.5 21 Norte 32 Norte 11.4 -- -- 96
2020-03-31 11:00:00 9.4 16 Norte 40 Norte 4.2 -- -- 95
2020-03-31 10:00:00 8.6 27 Norte 43 Norte 8 -- -- 96
2020-03-31 09:00:00 8.1 25 Norte 41 Norte 1.8 -- -- 93
2020-03-31 08:00:00 8.3 26 Norte 48 Norte 0 -- -- 90
2020-03-31 07:00:00 8.1 26 Norte 44 Norte 0 -- -- 88
2020-03-31 06:00:00 7.4 16 Norte 33 Norte 0.6 -- -- 90
2020-03-31 05:00:00 7 21 Norte 39 Norte 0.4 -- -- 89
2020-03-31 04:00:00 7 17 Norte 30 Norte 1 -- -- 88
2020-03-31 03:00:00 6.6 10 Norte 23 Norte 0.8 -- -- 91
2020-03-31 02:00:00 6.4 11 Norte 21 Norte 0.4 -- -- 90
2020-03-31 01:00:00 6.2 11 Norte 32 Norte 0.6 -- -- 89
2020-03-31 00:00:00 6.6 18 Norte 27 Norte 0 -- -- 83
2020-03-30 23:00:00 6.6 15 Norte 27 Norte 0.2 -- -- 84
2020-03-30 22:00:00 7 13 Norte 29 Norte 0.4 -- -- 81
2020-03-30 21:00:00 8.6 19 Norte 29 Norte 0 -- -- 65
2020-03-30 20:00:00 9.3 12 Norte 31 Norte 0 -- -- 59
2020-03-30 19:00:00 9.4 18 Norte 33 Norte 0 -- -- 60
2020-03-30 18:00:00 8.8 19 Norte 45 Norte 0 -- -- 64
2020-03-30 17:00:00 9 22 Norte 38 Norte 0 -- -- 62
2020-03-30 16:00:00 8.1 25 Norte 44 Norte 0 -- -- 68
2020-03-30 15:00:00 6.8 26 Norte 42 Norte 0.8 -- -- 79
2020-03-30 14:00:00 10.4 20 Norte 38 Norte 0 -- -- 53
2020-03-30 13:00:00 10.4 24 Norte 45 Norte 0 -- -- 54
2020-03-30 12:00:00 10.7 27 Norte 44 Noroeste 0.2 -- -- 53
2020-03-30 11:00:00 9.4 22 Norte 39 Norte 0.2 -- -- 64
2020-03-30 10:00:00 11.4 21 Norte 31 Norte 0 -- -- 50
2020-03-30 09:00:00 11.8 16 Norte 26 Norte 0 -- -- 55
2020-03-30 08:00:00 11.7 13 Norte 27 Norte 0 -- -- 60
2020-03-30 07:00:00 11.8 9 Norte 17 Norte 0 -- -- 59
2020-03-30 06:00:00 11.6 2 Norte 19 Norte 0 -- -- 61
2020-03-30 05:00:00 12.7 7 Norte 18 Norte 0 -- -- 54
2020-03-30 04:00:00 13 9 Norte 23 Norte 0 -- -- 52
2020-03-30 03:00:00 13.7 12 Norte 34 Norte 0 -- -- 49
2020-03-30 02:00:00 14.1 21 Norte 37 Norte 0 -- -- 49
2020-03-30 01:00:00 14.2 22 Norte 34 Norte 0 -- -- 50
2020-03-30 00:00:00 14.6 20 Norte 32 Norte 0 -- -- 50
2020-03-29 23:00:00 15.5 21 Norte 33 Norte 0 -- -- 47
2020-03-29 22:00:00 13.9 13 Noroeste 19 Norte 0 -- -- 72
2020-03-29 21:00:00 14.5 9 Noroeste 13 Noroeste 0 -- -- 70
2020-03-29 20:00:00 17.3 2 Sur 13 Sur 0 -- -- 60
2020-03-29 19:00:00 17.3 8 Sur 17 Sur 0 -- -- 68
2020-03-29 18:00:00 18.3 8 Sur 14 Sur 0 -- -- 61
2020-03-29 17:00:00 18.4 10 Sur 18 Sudeste 0 -- -- 61
2020-03-29 16:00:00 18 10 Sudeste 18 Sudeste 0 -- -- 56
2020-03-29 15:00:00 18.5 10 Sudeste 18 Sur 0 -- -- 49
2020-03-29 14:00:00 18.3 11 Sudeste 18 Sur 0 -- -- 51
2020-03-29 13:00:00 19 12 Sur 21 Sur 0 -- -- 47
2020-03-29 12:00:00 19.2 13 Sur 18 Sur 0 -- -- 43
2020-03-29 11:00:00 17.8 5 Sur 8 Sur 0 -- -- 47
2020-03-29 10:00:00 15.2 2 Sur 9 Noroeste 0 -- -- 57
2020-03-29 09:00:00 11.4 3 Noroeste 17 Norte 0 -- -- 62
2020-03-29 08:00:00 10.6 10 Noroeste 26 Norte 0 -- -- 63
2020-03-29 07:00:00 11 14 Noroeste 21 Noroeste 0 -- -- 63
2020-03-29 06:00:00 10.6 11 Noroeste 22 Norte 0 -- -- 65
2020-03-29 05:00:00 9.9 11 Noroeste 18 Noroeste 0 -- -- 70
2020-03-29 03:00:00 10.7 6 Noroeste 16 Noroeste 0 -- -- 70
2020-03-29 01:00:00 11.4 5 Noroeste 12 Noroeste 0 -- -- 68
2020-03-29 00:00:00 12.4 10 Noroeste 23 Noroeste 0 -- -- 64
2020-03-28 23:00:00 12.3 16 Noroeste 27 Noroeste 0 -- -- 64
2020-03-28 22:00:00 12.3 16 Noroeste 25 Noroeste 0 -- -- 64
2020-03-28 21:00:00 11.7 8 Noroeste 17 Noroeste 0 -- -- 68
2020-03-28 20:00:00 12 6 Noroeste 9 Noroeste 0 -- -- 69
2020-03-28 19:00:00 15 4 Sur 9 Sur 0 -- -- 60
2020-03-28 18:00:00 15.9 5 Sur 13 Sur 0 -- -- 55
2020-03-28 17:00:00 16.4 6 Sudeste 17 Sudeste 0 -- -- 52
2020-03-28 16:00:00 16.6 8 Sudeste 24 Sudeste 0 -- -- 53
2020-03-28 15:00:00 17 15 Sudeste 27 Sudeste 0 -- -- 51
2020-03-28 14:00:00 17.1 17 Este 33 Este 0 -- -- 49
2020-03-28 13:00:00 16.8 16 Este 25 Este 0 -- -- 49
2020-03-28 12:00:00 16.4 13 Este 22 Sudeste 0 -- -- 50
2020-03-28 11:00:00 16.1 8 Este 23 Nordeste 0 -- -- 50
2020-03-28 10:00:00 14.1 10 Norte 21 Norte 0 -- -- 58
2020-03-28 09:00:00 12.2 14 Norte 21 Noroeste 0 -- -- 63
2020-03-28 08:00:00 10.7 15 Norte 24 Noroeste 0 -- -- 67
2020-03-28 07:00:00 9.8 13 Norte 21 Noroeste 0 -- -- 67
2020-03-28 06:00:00 9.6 13 Norte 22 Norte 0 -- -- 65
2020-03-28 05:00:00 9.2 11 Norte 19 Noroeste 0 -- -- 67
2020-03-28 04:00:00 8.7 15 Noroeste 26 Norte 0 -- -- 70
2020-03-28 03:00:00 9 15 Noroeste 22 Noroeste 0 -- -- 67
2020-03-28 02:00:00 8 17 Noroeste 24 Noroeste 0 -- -- 70
2020-03-28 01:00:00 7.5 13 Noroeste 18 Noroeste 0 -- -- 73
2020-03-28 00:00:00 7.7 3 Norte 13 Norte 0 -- -- 75
2020-03-27 23:00:00 7.7 3 Norte 10 Noroeste 0 -- -- 75
2020-03-27 22:00:00 8 9 Noroeste 14 Norte 0 -- -- 77
2020-03-27 21:00:00 8.4 9 Noroeste 12 Noroeste 0 -- -- 76
2020-03-27 20:00:00 9.1 7 Noroeste 9 Noroeste 0 -- -- 77
2020-03-27 19:00:00 12.3 5 Sur 13 Sur 0 -- -- 63
2020-03-27 18:00:00 13.3 6 Sur 18 Sur 0 -- -- 61
2020-03-27 17:00:00 13.6 9 Sudeste 18 Sur 0 -- -- 60
2020-03-27 16:00:00 13.7 9 Sudeste 23 Este 0 -- -- 60
2020-03-27 15:00:00 13.8 12 Sudeste 28 Sudeste 0 -- -- 62
2020-03-27 14:00:00 14.2 12 Sudeste 20 Sudeste 0 -- -- 60
2020-03-27 13:00:00 14.1 10 Sudeste 27 Este 0 -- -- 60
2020-03-27 12:00:00 14 14 Este 24 Sudeste 0 -- -- 59
2020-03-27 11:00:00 13.7 10 Este 22 Este 0 -- -- 57
2020-03-27 10:00:00 12.1 8 Nordeste 20 Norte 0 -- -- 63
2020-03-27 09:00:00 10.7 13 Norte 20 Nordeste 0 -- -- 72
2020-03-27 08:00:00 8.5 13 Norte 24 Norte 0 -- -- 81
2020-03-27 07:00:00 7.3 16 Norte 26 Norte 0 -- -- 85
2020-03-27 06:00:00 8 13 Norte 20 Norte 0 -- -- 81
2020-03-27 05:00:00 7.7 12 Norte 18 Noroeste 0 -- -- 84
2020-03-27 04:00:00 7.5 12 Noroeste 19 Noroeste 0 -- -- 85
2020-03-27 03:00:00 7.3 13 Noroeste 22 Norte 0 -- -- 87
2020-03-27 02:00:00 7.8 14 Norte 24 Norte 0 -- -- 84
2020-03-27 01:00:00 7.5 12 Norte 22 Noroeste 0 -- -- 85
2020-03-27 00:00:00 7.4 14 Norte 24 Norte 0 -- -- 85
2020-03-26 23:00:00 7.2 13 Norte 24 Norte 0 -- -- 85
2020-03-26 22:00:00 7.3 13 Norte 26 Norte 0 -- -- 83
2020-03-26 21:00:00 7.7 14 Norte 27 Norte 0 -- -- 84
2020-03-26 20:00:00 8.4 11 Norte 21 Norte 0.6 -- -- 87
2020-03-26 19:00:00 9.6 7 Norte 17 Nordeste 0.2 -- -- 84
2020-03-26 18:00:00 10.4 8 Nordeste 24 Este 0.2 -- -- 76
2020-03-26 17:00:00 10.9 10 Este 27 Sudeste 0.2 -- -- 77
2020-03-26 16:00:00 11.5 15 Este 27 Este 0 -- -- 66
2020-03-26 15:00:00 11.7 13 Este 37 Este 0 -- -- 69
2020-03-26 14:00:00 13.7 7 Sudeste 22 Sudeste 0 -- -- 61
2020-03-26 13:00:00 12.6 13 Este 33 Norte 0 -- -- 64
2020-03-26 12:00:00 13.9 26 Norte 48 Norte 0 -- -- 41
2020-03-26 11:00:00 14.6 25 Norte 45 Noroeste 0 -- -- 42
2020-03-26 10:00:00 13 26 Norte 47 Norte 0.2 -- -- 51
2020-03-26 09:00:00 9.9 3 Sur 6 Sudoeste 0 -- -- 65
2020-03-26 08:00:00 8.1 0 Calma 31 Norte 0 -- -- 68
2020-03-26 07:00:00 7.8 19 Norte 30 Norte 0 -- -- 69
2020-03-26 06:00:00 7.9 19 Norte 30 Norte 0 -- -- 78
2020-03-26 05:00:00 6.3 10 Noroeste 17 Noroeste 0 -- -- 87
2020-03-26 04:00:00 6 7 Noroeste 13 Noroeste 0 -- -- 90
2020-03-26 03:00:00 6.3 7 Noroeste 15 Noroeste 0 -- -- 90
2020-03-26 02:00:00 6.7 12 Noroeste 18 Noroeste 0 -- -- 89
2020-03-26 01:00:00 6.8 4 Oeste 9 Noroeste 0 -- -- 88
2020-03-26 00:00:00 7.2 6 Noroeste 11 Oeste 0 -- -- 87
2020-03-25 23:00:00 8.5 7 Noroeste 11 Oeste 0 -- -- 84
2020-03-25 22:00:00 9.1 5 Sudoeste 11 Sudoeste 0 -- -- 81
2020-03-25 21:00:00 9.3 4 Oeste 9 Oeste 0 -- -- 82
2020-03-25 20:00:00 9.6 4 Noroeste 6 Noroeste 0 -- -- 84
2020-03-25 19:00:00 10.3 2 Sudoeste 5 Sudeste 0 -- -- 73
2020-03-25 18:00:00 10.5 4 Sudeste 10 Sudeste 0 -- -- 72
2020-03-25 17:00:00 10.9 5 Este 10 Este 0 -- -- 71
2020-03-25 16:00:00 10.6 8 Nordeste 15 Nordeste 0 -- -- 74
2020-03-25 15:00:00 10.2 8 Norte 17 Noroeste 0 -- -- 77
2020-03-25 14:00:00 8.9 10 Noroeste 23 Noroeste 0 -- -- 84
2020-03-25 13:00:00 8.2 12 Noroeste 20 Noroeste 1.2 -- -- 91
2020-03-25 12:00:00 8.2 12 Norte 22 Norte 1.2 -- -- 91
2020-03-25 11:00:00 8.4 10 Noroeste 21 Norte 0.6 -- -- 92
2020-03-25 10:00:00 8.5 11 Noroeste 19 Noroeste 1.4 -- -- 92
2020-03-25 09:00:00 8.4 13 Norte 23 Norte 0.2 -- -- 90
2020-03-25 08:00:00 8.7 9 Norte 21 Norte 0.6 -- -- 90
2020-03-25 07:00:00 8.9 14 Norte 24 Noroeste 0 -- -- 88
2020-03-25 06:00:00 8.8 14 Norte 21 Norte 0 -- -- 90
2020-03-25 05:00:00 9.2 15 Norte 22 Nordeste 0.2 -- -- 88
2020-03-25 04:00:00 9.3 10 Norte 25 Norte 0.8 -- -- 92
2020-03-25 03:00:00 9.1 12 Noroeste 22 Norte 0.6 -- -- 93
2020-03-25 02:00:00 9.6 12 Norte 25 Nordeste 1 -- -- 93
2020-03-25 01:00:00 9.9 12 Norte 21 Norte 1.2 -- -- 93
2020-03-25 00:00:00 10.2 10 Nordeste 23 Nordeste 0.2 -- -- 89
2020-03-24 23:00:00 10.2 8 Noroeste 19 Norte 3.2 -- -- 91
2020-03-24 22:00:00 11.3 6 Norte 17 Norte 0 -- -- 81
2020-03-24 21:00:00 11.8 11 Norte 18 Norte 0 -- -- 75
2020-03-24 20:00:00 11.9 10 Nordeste 22 Este 0 -- -- 74
2020-03-24 19:00:00 12.2 13 Nordeste 25 Nordeste 0 -- -- 75
2020-03-24 18:00:00 12.3 14 Nordeste 26 Nordeste 0 -- -- 79
2020-03-24 17:00:00 11.9 15 Nordeste 38 Este 0 -- -- 86
2020-03-24 16:00:00 12.8 18 Nordeste 32 Nordeste 0 -- -- 79
2020-03-24 15:00:00 12.8 19 Nordeste 34 Nordeste 0 -- -- 74
2020-03-24 14:00:00 13.1 18 Nordeste 35 Nordeste 0 -- -- 72
2020-03-24 13:00:00 13.6 22 Nordeste 37 Nordeste 0 -- -- 71
2020-03-24 12:00:00 13.3 21 Nordeste 36 Nordeste 0 -- -- 73
2020-03-24 11:00:00 12.9 21 Nordeste 40 Nordeste 0 -- -- 77
2020-03-24 10:00:00 12.8 22 Nordeste 37 Nordeste 0 -- -- 80
2020-03-24 09:00:00 12.7 23 Nordeste 44 Nordeste 0 -- -- 82
2020-03-24 08:00:00 12 18 Nordeste 35 Nordeste 0.8 -- -- 90
2020-03-24 07:00:00 12.3 19 Nordeste 38 Nordeste 0.4 -- -- 90
2020-03-24 06:00:00 13 24 Nordeste 40 Nordeste 0.2 -- -- 85
2020-03-24 05:00:00 13.4 20 Nordeste 42 Nordeste 0 -- -- 82
2020-03-24 04:00:00 13.6 22 Nordeste 39 Este 0 -- -- 86
2020-03-24 03:00:00 14 17 Nordeste 34 Nordeste 0 -- -- 84
2020-03-24 02:00:00 13.9 15 Nordeste 29 Nordeste 0 -- -- 80
2020-03-24 01:00:00 13.8 17 Nordeste 31 Nordeste 0 -- -- 82
2020-03-24 00:00:00 13.9 13 Nordeste 26 Nordeste 0 -- -- 81
2020-03-23 23:00:00 13.9 17 Nordeste 29 Nordeste 0 -- -- 82
2020-03-23 22:00:00 13.8 18 Este 34 Este 0 -- -- 89
2020-03-23 21:00:00 14.1 18 Este 29 Este 0 -- -- 90
2020-03-23 20:00:00 14.2 18 Este 30 Este 0 -- -- 90
2020-03-23 19:00:00 14.5 18 Este 32 Este 0 -- -- 90
2020-03-23 18:00:00 14.9 11 Nordeste 22 Nordeste 0 -- -- 83
2020-03-23 17:00:00 15.4 15 Este 28 Este 0 -- -- 80
2020-03-23 16:00:00 15.6 18 Este 27 Este 0 -- -- 85
2020-03-23 15:00:00 16.9 15 Sudeste 26 Sudeste 0 -- -- 78
2020-03-23 14:00:00 16.3 12 Sudeste 25 Sudeste 0 -- -- 86
2020-03-23 13:00:00 15.9 13 Este 24 Este 0 -- -- 87
2020-03-23 12:00:00 15.5 14 Este 21 Este 0 -- -- 85
2020-03-23 11:00:00 14.5 6 Noroeste 12 Este 0 -- -- 81
2020-03-23 10:00:00 15 10 Este 21 Este 0 -- -- 88
2020-03-23 09:00:00 13.5 10 Norte 21 Norte 0 -- -- 89
2020-03-23 08:00:00 13 12 Norte 18 Norte 0.2 -- -- 91
2020-03-23 07:00:00 12.6 13 Norte 25 Norte 0 -- -- 90
2020-03-23 06:00:00 12.1 13 Norte 20 Norte 0 -- -- 92
2020-03-23 05:00:00 12.4 13 Norte 19 Norte 0 -- -- 90
2020-03-23 04:00:00 12.4 8 Norte 17 Norte 0 -- -- 88
2020-03-23 03:00:00 12.4 8 Norte 19 Norte 0 -- -- 89
2020-03-23 02:00:00 12.5 12 Norte 21 Norte 0.2 -- -- 89
2020-03-23 01:00:00 12.6 12 Norte 22 Norte 0 -- -- 90
2020-03-23 00:00:00 12.8 14 Norte 22 Norte 0 -- -- 90
2020-03-22 23:00:00 12.8 10 Norte 20 Norte 0 -- -- 86
2020-03-22 22:00:00 12.5 12 Norte 16 Norte 0 -- -- 86
2020-03-22 21:00:00 12.8 9 Norte 18 Norte 0 -- -- 86
2020-03-22 20:00:00 13.1 5 Norte 12 Nordeste 0 -- -- 85
2020-03-22 19:00:00 13.6 7 Norte 16 Norte 0 -- -- 84
2020-03-22 18:00:00 14.2 5 Norte 18 Este 0 -- -- 85
2020-03-22 17:00:00 14.5 4 Este 13 Sudeste 0 -- -- 84
2020-03-22 16:00:00 15 8 Sudeste 14 Sudeste 0 -- -- 81
2020-03-22 15:00:00 14.5 5 Este 14 Nordeste 0 -- -- 85
2020-03-22 14:00:00 13.3 11 Norte 21 Norte 0 -- -- 86
2020-03-22 13:00:00 12.1 7 Norte 15 Norte 1 -- -- 95
2020-03-22 12:00:00 11.5 4 Nordeste 19 Norte 3 -- -- 96
2020-03-22 11:00:00 11.4 12 Norte 23 Norte 3.2 -- -- 93
2020-03-22 10:00:00 10.6 13 Norte 21 Noroeste 1 -- -- 93
2020-03-22 09:00:00 10.1 11 Noroeste 19 Noroeste 2.8 -- -- 93
2020-03-22 08:00:00 10.6 12 Norte 19 Noroeste 0.8 -- -- 88
2020-03-22 07:00:00 10.5 11 Noroeste 21 Noroeste 0 -- -- 86
2020-03-22 06:00:00 10.9 13 Norte 20 Noroeste 0 -- -- 84
2020-03-22 05:00:00 10.6 14 Norte 19 Noroeste 0 -- -- 87
2020-03-22 04:00:00 10.4 14 Norte 21 Noroeste 0 -- -- 89
2020-03-22 03:00:00 10.6 15 Noroeste 22 Noroeste 0 -- -- 89
2020-03-22 02:00:00 11.1 13 Noroeste 19 Noroeste 0 -- -- 90
2020-03-22 01:00:00 10.9 11 Noroeste 17 Noroeste 0 -- -- 91
2020-03-22 00:00:00 11.1 13 Norte 17 Norte 0 -- -- 91
2020-03-21 23:00:00 11.6 11 Norte 14 Norte 0 -- -- 90
2020-03-21 22:00:00 12.1 6 Norte 8 Norte 0 -- -- 90
2020-03-21 21:00:00 11.8 2 Norte 4 Noroeste 0 -- -- 90
2020-03-21 20:00:00 12.8 0 Calma 3 Nordeste 0 -- -- 86
2020-03-21 19:00:00 13.5 2 Este 9 Este 0 -- -- 84
2020-03-21 18:00:00 13.8 6 Este 11 Este 0 -- -- 82
2020-03-21 17:00:00 13.9 8 Este 19 Este 0 -- -- 81
2020-03-21 16:00:00 14.3 13 Este 21 Este 0 -- -- 79
2020-03-21 15:00:00 14.7 12 Este 21 Este 0 -- -- 76
2020-03-21 14:00:00 14.7 14 Este 23 Este 0 -- -- 72
2020-03-21 13:00:00 15.2 17 Este 27 Este 0 -- -- 70
2020-03-21 12:00:00 15.5 16 Este 25 Este 0 -- -- 70
2020-03-21 11:00:00 14.8 4 Norte 18 Nordeste 0 -- -- 69
2020-03-21 10:00:00 14 12 Nordeste 23 Norte 0 -- -- 73
2020-03-21 09:00:00 11.9 13 Norte 23 Norte 0 -- -- 78
2020-03-21 08:00:00 10 16 Noroeste 22 Noroeste 0 -- -- 83
2020-03-21 07:00:00 9.6 14 Norte 21 Norte 0 -- -- 85
2020-03-21 06:00:00 10 13 Norte 22 Noroeste 0 -- -- 85
2020-03-21 05:00:00 10.3 15 Norte 22 Noroeste 0 -- -- 85
2020-03-21 04:00:00 10.3 15 Noroeste 22 Norte 0 -- -- 86
2020-03-21 03:00:00 10.4 14 Norte 19 Noroeste 0 -- -- 88
2020-03-21 02:00:00 10.8 13 Norte 21 Noroeste 0 -- -- 89
2020-03-21 01:00:00 11 15 Noroeste 20 Noroeste 0 -- -- 88
2020-03-21 00:00:00 11.1 14 Noroeste 18 Noroeste 0 -- -- 90
2020-03-20 23:00:00 11.8 10 Norte 15 Norte 0 -- -- 88
2020-03-20 22:00:00 12.5 7 Norte 12 Nordeste 0 -- -- 87
2020-03-20 21:00:00 12.8 6 Norte 11 Norte 0 -- -- 86
2020-03-20 20:00:00 12.8 6 Nordeste 15 Nordeste 0 -- -- 86
2020-03-20 19:00:00 13.6 11 Nordeste 24 Nordeste 0 -- -- 85
2020-03-20 18:00:00 14 16 Este 23 Este 0 -- -- 83
2020-03-20 17:00:00 14.8 15 Este 26 Nordeste 0 -- -- 76
2020-03-20 16:00:00 15.7 17 Este 26 Este 0 -- -- 69
2020-03-20 15:00:00 15.7 18 Este 28 Este 0 -- -- 75
2020-03-20 14:00:00 15.7 18 Este 30 Este 0 -- -- 73
2020-03-20 13:00:00 16.1 18 Este 29 Este 0 -- -- 75
2020-03-20 12:00:00 14.2 7 Norte 17 Norte 0 -- -- 80
2020-03-20 11:00:00 13.9 8 Norte 18 Norte 0 -- -- 81
2020-03-20 10:00:00 12.6 13 Norte 22 Norte 0 -- -- 85
2020-03-20 09:00:00 11.8 13 Norte 22 Norte 0 -- -- 86
2020-03-20 08:00:00 11 14 Norte 21 Noroeste 0 -- -- 87
2020-03-20 07:00:00 10.6 15 Norte 22 Norte 0 -- -- 86
2020-03-20 06:00:00 10.2 16 Noroeste 23 Norte 0 -- -- 86
2020-03-20 05:00:00 10.2 17 Noroeste 22 Noroeste 0 -- -- 86
2020-03-20 04:00:00 10.5 15 Norte 23 Noroeste 0 -- -- 86
2020-03-20 03:00:00 10.6 14 Noroeste 23 Noroeste 0 -- -- 88
2020-03-20 02:00:00 10.4 15 Noroeste 24 Noroeste -- -- -- 88
2020-03-20 01:00:00 10.1 16 Noroeste 23 Norte 0 -- -- 88
2020-03-20 00:00:00 10.5 15 Norte 21 Norte 0 -- -- 88
2020-03-19 23:00:00 10.8 13 Noroeste 18 Noroeste 0 -- -- 89
2020-03-19 22:00:00 11.3 12 Norte 17 Noroeste 0 -- -- 89
2020-03-19 21:00:00 12.1 8 Norte 11 Norte 0 -- -- 88
2020-03-19 20:00:00 12.4 6 Norte 9 Nordeste 0 -- -- 88
2020-03-19 19:00:00 13.3 6 Este 15 Este 0 -- -- 85
2020-03-19 18:00:00 14.2 11 Este 18 Este 0 -- -- 81
2020-03-19 17:00:00 14.7 11 Este 22 Este 0 -- -- 80
2020-03-19 16:00:00 15.1 15 Este 24 Este 0 -- -- 79
2020-03-19 15:00:00 16 14 Este 24 Este 0 -- -- 75
2020-03-19 14:00:00 16.2 15 Este 22 Este 0 -- -- 73
2020-03-19 13:00:00 16.1 13 Este 24 Este 0 -- -- 74
2020-03-19 12:00:00 15.8 9 Sudeste 18 Este 0 -- -- 71
2020-03-19 11:00:00 14.9 10 Este 18 Este 0 -- -- 75
2020-03-19 10:00:00 13.9 7 Este 17 Noroeste 0 -- -- 81
2020-03-19 09:00:00 11 14 Noroeste 22 Noroeste 0 -- -- 74
2020-03-19 08:00:00 9.5 18 Noroeste 25 Noroeste 0 -- -- 77
2020-03-19 07:00:00 9.5 15 Noroeste 23 Norte 0 -- -- 77
2020-03-19 06:00:00 9.5 17 Norte 23 Noroeste 0 -- -- 78
2020-03-19 05:00:00 9.8 14 Noroeste 18 Noroeste 0 -- -- 78
2020-03-19 04:00:00 10.4 9 Noroeste 13 Noroeste 0 -- -- 76
2020-03-19 03:00:00 10.3 10 Noroeste 16 Norte 0 -- -- 80
2020-03-19 02:00:00 10.9 12 Noroeste 16 Norte 0 -- -- 81
2020-03-19 01:00:00 11.2 7 Norte 17 Noroeste 0 -- -- 83
2020-03-19 00:00:00 11.1 8 Noroeste 17 Noroeste 0 -- -- 82
2020-03-18 23:00:00 11.4 13 Noroeste 24 Noroeste 0 -- -- 83
2020-03-18 22:00:00 11.4 14 Norte 20 Norte 0 -- -- 91
2020-03-18 21:00:00 12.1 8 Norte 10 Norte 0 -- -- 91
2020-03-18 20:00:00 12.7 2 Oeste 6 Noroeste 0 -- -- 89
2020-03-18 19:00:00 13.4 2 Nordeste 19 Este 0 -- -- 87
2020-03-18 18:00:00 14.2 12 Este 20 Este 0 -- -- 83
2020-03-18 17:00:00 15.2 10 Este 22 Este 0 -- -- 79
2020-03-18 16:00:00 15 13 Este 27 Nordeste 0 -- -- 77
2020-03-18 15:00:00 15.2 16 Este 28 Este 0 -- -- 79
2020-03-18 14:00:00 15.6 14 Este 22 Este 0 -- -- 81
2020-03-18 13:00:00 15.4 14 Este 19 Nordeste 0 -- -- 83
2020-03-18 12:00:00 15.7 7 Nordeste 15 Nordeste 0 -- -- 74
2020-03-18 11:00:00 15 6 Nordeste 15 Norte 0 -- -- 83
2020-03-18 10:00:00 13.7 9 Norte 15 Norte 0 -- -- 83
2020-03-18 09:00:00 12.3 10 Norte 15 Noroeste 0 -- -- 81
2020-03-18 08:00:00 11.5 12 Noroeste 21 Noroeste 0 -- -- 82
2020-03-18 07:00:00 11.4 16 Noroeste 22 Noroeste 0 -- -- 83
2020-03-18 06:00:00 11.5 15 Noroeste 21 Norte 0 -- -- 83
2020-03-18 05:00:00 12.3 8 Norte 17 Noroeste 0 -- -- 81
2020-03-18 04:00:00 12.1 13 Norte 19 Norte 0 -- -- 81
2020-03-18 03:00:00 12.2 14 Noroeste 21 Noroeste 0 -- -- 83
2020-03-18 02:00:00 12.9 14 Norte 24 Norte 0 -- -- 82
2020-03-18 01:00:00 12.8 10 Norte 21 Norte 0 -- -- 84
2020-03-18 00:00:00 13.1 12 Norte 23 Norte 0 -- -- 83
2020-03-17 23:00:00 12.5 6 Norte 19 Norte 0 -- -- 87
2020-03-17 22:00:00 13.3 12 Norte 24 Norte 0 -- -- 84
2020-03-17 21:00:00 13.6 12 Norte 25 Norte 0 -- -- 86
2020-03-17 20:00:00 13.7 10 Norte 26 Norte 0 -- -- 89
2020-03-17 19:00:00 14.1 15 Nordeste 28 Norte 0 -- -- 88
2020-03-17 18:00:00 14.2 12 Nordeste 25 Nordeste 0 -- -- 90
2020-03-17 17:00:00 14.3 14 Nordeste 29 Nordeste 0 -- -- 91
2020-03-17 16:00:00 14.3 19 Nordeste 32 Norte 0.2 -- -- 92
2020-03-17 15:00:00 14.1 13 Nordeste 31 Norte 0 -- -- 94
2020-03-17 14:00:00 14.2 19 Nordeste 34 Nordeste 0 -- -- 93
2020-03-17 13:00:00 14.2 16 Nordeste 35 Nordeste 0.2 -- -- 96
2020-03-17 12:00:00 14.1 22 Nordeste 38 Nordeste 0 -- -- 98
2020-03-17 11:00:00 14.1 20 Este 38 Este 0 -- -- 98
2020-03-17 10:00:00 13.9 15 Este 35 Este 4.6 -- -- 98
2020-03-17 09:00:00 13.9 18 Este 36 Nordeste 3 -- -- 99
2020-03-17 08:00:00 13.9 22 Este 38 Este 0.6 -- -- 99
2020-03-17 07:00:00 14 26 Este 42 Nordeste 5.4 -- -- 99
2020-03-17 06:00:00 13.8 26 Este 50 Este 9.4 -- -- 99
2020-03-17 05:00:00 13.8 30 Este 55 Este 4.8 -- -- 99
2020-03-17 04:00:00 13.9 30 Este 44 Este 7.6 -- -- 98
2020-03-17 03:00:00 14.3 18 Este 35 Este 1.6 -- -- 98
2020-03-17 02:00:00 14.5 21 Este 33 Este 0.2 -- -- 97
2020-03-17 01:00:00 14.5 21 Este 36 Nordeste 0 -- -- 97
2020-03-17 00:00:00 14.7 19 Este 31 Este 0 -- -- 96
2020-03-16 23:00:00 14.7 17 Nordeste 29 Este 0 -- -- 97
2020-03-16 22:00:00 14.6 17 Este 33 Este 0 -- -- 97
2020-03-16 21:00:00 14.6 19 Este 34 Este 0 -- -- 97
2020-03-16 20:00:00 14.6 19 Este 31 Este 0.2 -- -- 97
2020-03-16 19:00:00 14.7 14 Este 25 Este 0 -- -- 96
2020-03-16 18:00:00 14.7 13 Este 28 Este 0 -- -- 95
2020-03-16 17:00:00 14.5 12 Este 24 Nordeste 0 -- -- 93
2020-03-16 16:00:00 14.1 13 Nordeste 28 Este 0 -- -- 90
2020-03-16 15:00:00 13.9 18 Este 33 Este 0.8 -- -- 94
2020-03-16 14:00:00 13.3 8 Norte 15 Norte 4.4 -- -- 92
2020-03-16 13:00:00 13.7 9 Nordeste 23 Nordeste 0.4 -- -- 92
2020-03-16 12:00:00 14.1 12 Este 26 Nordeste 0 -- -- 93
2020-03-16 11:00:00 13.8 15 Este 23 Este 1.4 -- -- 94
2020-03-16 10:00:00 13.1 10 Norte 16 Norte 1.4 -- -- 92
2020-03-16 09:00:00 13.3 9 Nordeste 14 Este 1 -- -- 93
2020-03-16 08:00:00 13.4 5 Este 13 Sudeste 0 -- -- 92
2020-03-16 07:00:00 13.6 9 Sudeste 22 Sudeste 0.2 -- -- 92
2020-03-16 06:00:00 13.3 6 Nordeste 9 Este 0 -- -- 94
2020-03-16 05:00:00 13.2 4 Nordeste 13 Norte 0 -- -- 92
2020-03-16 04:00:00 12.5 11 Norte 17 Norte 0 -- -- 90
2020-03-16 03:00:00 13.4 4 Noroeste 8 Noroeste 0 -- -- 87
2020-03-16 02:00:00 13 6 Noroeste 8 Noroeste 0 -- -- 85
2020-03-16 01:00:00 13.5 0 Calma 6 Noroeste 0 -- -- 83
2020-03-16 00:00:00 13.7 0 Calma 5 Este 0 -- -- 84
2020-03-15 23:00:00 14.4 4 Oeste 6 Oeste 0 -- -- 82
2020-03-15 22:00:00 14.3 5 Oeste 7 Oeste 0 -- -- 81
2020-03-15 21:00:00 14.2 4 Sudoeste 9 Oeste 0 -- -- 85
2020-03-15 20:00:00 13.8 7 Oeste 10 Sudoeste 0 -- -- 86
2020-03-15 19:00:00 14.6 7 Sur 18 Sur 0 -- -- 84
2020-03-15 18:00:00 15.6 12 Sur 23 Sur 0 -- -- 80
2020-03-15 17:00:00 16.4 15 Sur 27 Sur 0 -- -- 75
2020-03-15 16:00:00 17 15 Sur 27 Sur 0 -- -- 72
2020-03-15 15:00:00 16.9 15 Sur 28 Sur 0 -- -- 77
2020-03-15 14:00:00 17 19 Sur 28 Sur 0 -- -- 75
2020-03-15 13:00:00 17.2 18 Sur 27 Sudeste 0 -- -- 76
2020-03-15 12:00:00 16.4 13 Sur 21 Sur 0 -- -- 80
2020-03-15 11:00:00 15.4 8 Sur 15 Sur 0 -- -- 82
2020-03-15 10:00:00 14.6 4 Sur 7 Sur 0 -- -- 83
2020-03-15 09:00:00 13.3 0 Calma 9 Noroeste 0 -- -- 87
2020-03-15 08:00:00 11.9 5 Noroeste 14 Noroeste 0 -- -- 88
2020-03-15 07:00:00 10.2 11 Noroeste 15 Noroeste 0 -- -- 88
2020-03-15 06:00:00 11 7 Noroeste 14 Noroeste 0 -- -- 89
2020-03-15 05:00:00 10 10 Noroeste 19 Norte 0 -- -- 90
2020-03-15 04:00:00 10.4 10 Noroeste 15 Noroeste 0 -- -- 91
2020-03-15 03:00:00 10.6 7 Noroeste 12 Noroeste 0 -- -- 90
2020-03-15 02:00:00 11.1 4 Noroeste 9 Noroeste 0 -- -- 90
2020-03-15 01:00:00 11.5 3 Noroeste 9 Noroeste 0 -- -- 90
2020-03-15 00:00:00 11.4 3 Noroeste 11 Noroeste 0 -- -- 91
2020-03-14 23:00:00 11.9 7 Noroeste 10 Noroeste 0 -- -- 91
2020-03-14 22:00:00 12 5 Noroeste 8 Noroeste 0 -- -- 90
2020-03-14 21:00:00 12.7 4 Noroeste 7 Noroeste 0 -- -- 90
2020-03-14 20:00:00 13.5 3 Noroeste 6 Noroeste 0 -- -- 85
2020-03-14 19:00:00 14.9 3 Sur 8 Sur 0 -- -- 82
2020-03-14 18:00:00 16 6 Sur 12 Sudeste 0 -- -- 76
2020-03-14 17:00:00 16.6 8 Sudeste 17 Este 0 -- -- 71
2020-03-14 16:00:00 17.1 9 Sudeste 19 Sudeste 0 -- -- 68
2020-03-14 15:00:00 17.3 11 Sudeste 21 Sudeste 0 -- -- 69
2020-03-14 14:00:00 17.4 11 Sudeste 23 Sudeste 0 -- -- 70
2020-03-14 13:00:00 17.7 12 Sudeste 20 Sur 0 -- -- 64
2020-03-14 12:00:00 17.5 11 Sudeste 17 Sudeste 0 -- -- 59
2020-03-14 11:00:00 16.8 9 Sudeste 16 Sudeste 0 -- -- 63
2020-03-14 10:00:00 15.8 4 Sudeste 10 Sudeste 0 -- -- 64
2020-03-14 09:00:00 14.3 2 Este 9 Norte 0 -- -- 66
2020-03-14 08:00:00 11.7 12 Noroeste 26 Norte 0 -- -- 76
2020-03-14 07:00:00 11.2 18 Noroeste 23 Norte 0 -- -- 77
2020-03-14 06:00:00 11.7 16 Noroeste 21 Norte 0 -- -- 75
2020-03-14 05:00:00 11.4 10 Noroeste 18 Norte 0 -- -- 74
2020-03-14 04:00:00 11.7 9 Noroeste 15 Noroeste 0 -- -- 73
2020-03-14 03:00:00 11.3 4 Noroeste 6 Noroeste 0 -- -- 73
2020-03-14 02:00:00 11.7 2 Nordeste 9 Noroeste 0 -- -- 72
2020-03-14 01:00:00 12.8 8 Noroeste 13 Noroeste 0 -- -- 67
2020-03-14 00:00:00 13.3 3 Noroeste 9 Noroeste 0 -- -- 65
2020-03-13 23:00:00 13.5 3 Norte 9 Noroeste 0 -- -- 67
2020-03-13 22:00:00 13.9 4 Noroeste 6 Noroeste 0 -- -- 66
2020-03-13 21:00:00 14.2 0 Calma 6 Nordeste 0 -- -- 63
2020-03-13 20:00:00 14.8 0 Calma 5 Noroeste 0 -- -- 62
2020-03-13 19:00:00 16.1 0 Calma 6 Este 0 -- -- 58
2020-03-13 18:00:00 16.4 4 Nordeste 13 Este 0 -- -- 62
2020-03-13 17:00:00 17.1 6 Este 15 Este 0 -- -- 60
2020-03-13 16:00:00 17.4 5 Sur 26 Sudeste 0 -- -- 65
2020-03-13 15:00:00 18.2 12 Sudeste 25 Este 0 -- -- 61
2020-03-13 14:00:00 18.8 10 Este 27 Este 0 -- -- 59
2020-03-13 13:00:00 18.8 13 Este 24 Este 0 -- -- 57
2020-03-13 12:00:00 18.8 10 Sudeste 19 Este 0 -- -- 62
2020-03-13 11:00:00 18.1 7 Nordeste 19 Norte 0 -- -- 64
2020-03-13 10:00:00 15.1 14 Noroeste 22 Noroeste 0 -- -- 76
2020-03-13 09:00:00 12.4 11 Norte 17 Norte 0 -- -- 88
2020-03-13 08:00:00 11.6 4 Sur 30 Norte 0 -- -- 88
2020-03-13 07:00:00 11.5 18 Norte 28 Norte 0 -- -- 89
2020-03-13 06:00:00 11.2 4 Nordeste 22 Norte 0 -- -- 90
2020-03-13 05:00:00 11.2 15 Norte 23 Norte 0 -- -- 93
2020-03-13 04:00:00 11.5 18 Norte 26 Norte 0 -- -- 92
2020-03-13 03:00:00 11.4 8 Norte 20 Norte 0 -- -- 92
2020-03-13 02:00:00 11.2 4 Norte 14 Norte 0 -- -- 92
2020-03-13 01:00:00 11.7 2 Nordeste 13 Norte 0 -- -- 87
2020-03-13 00:00:00 12.2 7 Noroeste 11 Noroeste 0 -- -- 87
2020-03-12 23:00:00 12.6 3 Noroeste 10 Norte 0 -- -- 83
2020-03-12 22:00:00 12.8 2 Norte 6 Noroeste 0 -- -- 86
2020-03-12 21:00:00 13.4 3 Norte 6 Noroeste 0 -- -- 86
2020-03-12 20:00:00 13.7 4 Noroeste 6 Noroeste 0 -- -- 83
2020-03-12 19:00:00 15.3 2 Sudeste 5 Sudeste 0 -- -- 80
2020-03-12 18:00:00 16.1 5 Sudeste 8 Sur 0 -- -- 77
2020-03-12 17:00:00 16.5 5 Sur 12 Sur 0 -- -- 75
2020-03-12 16:00:00 17 6 Sudeste 17 Sudeste 0 -- -- 73
2020-03-12 15:00:00 17.9 9 Sudeste 16 Sudeste 0 -- -- 71
2020-03-12 14:00:00 17 6 Sudeste 15 Sudeste 0 -- -- 74
2020-03-12 13:00:00 16.5 9 Sudeste 17 Sudeste 0 -- -- 76
2020-03-12 12:00:00 17 9 Sudeste 14 Sudeste 0 -- -- 74
2020-03-12 11:00:00 17.2 5 Sur 11 Sur 0 -- -- 66
2020-03-12 10:00:00 14.9 4 Sur 8 Sur 0 -- -- 77
2020-03-12 09:00:00 13.1 4 Sur 8 Sudeste 0 -- -- 77
2020-03-12 08:00:00 10.5 5 Noroeste 9 Noroeste 0 -- -- 79
2020-03-12 07:00:00 11.1 5 Norte 10 Noroeste 0 -- -- 75
2020-03-12 06:00:00 11.4 4 Noroeste 8 Noroeste 0 -- -- 76
2020-03-12 05:00:00 11.6 3 Noroeste 10 Noroeste 0 -- -- 73
2020-03-12 04:00:00 12.1 9 Noroeste 14 Noroeste 0 -- -- 70
2020-03-12 03:00:00 12 3 Noroeste 5 Noroeste 0 -- -- 71
2020-03-12 02:00:00 12.5 5 Noroeste 10 Noroeste 0 -- -- 68
2020-03-12 01:00:00 13 4 Noroeste 6 Noroeste 0 -- -- 67
2020-03-12 00:00:00 13 5 Noroeste 10 Noroeste 0 -- -- 64
2020-03-11 23:00:00 13.8 7 Noroeste 9 Noroeste 0 -- -- 61
2020-03-11 22:00:00 14.2 2 Sur 11 Noroeste 0 -- -- 60
2020-03-11 21:00:00 14.2 6 Noroeste 7 Noroeste 0 -- -- 58
2020-03-11 20:00:00 14.7 4 Noroeste 8 Noroeste 0 -- -- 64
2020-03-11 19:00:00 17.3 3 Sur 11 Sur 0 -- -- 59
2020-03-11 18:00:00 18.9 7 Sur 14 Sur 0 -- -- 47
2020-03-11 17:00:00 19.8 9 Sur 15 Sur 0 -- -- 49
2020-03-11 16:00:00 20.6 10 Sudeste 15 Sudeste 0 -- -- 47
2020-03-11 15:00:00 20.4 8 Sudeste 16 Sudeste 0 -- -- 42
2020-03-11 14:00:00 20.3 10 Sur 21 Sudeste 0 -- -- 48
2020-03-11 13:00:00 20.1 9 Sudeste 17 Sudeste 0 -- -- 56
2020-03-11 12:00:00 20.3 8 Sudeste 13 Sudeste 0 -- -- 57
2020-03-11 11:00:00 19.2 5 Este 12 Sudeste 0 -- -- 60
2020-03-11 10:00:00 17.5 3 Sudeste 9 Sudeste 0 -- -- 61
2020-03-11 09:00:00 14.7 2 Sudeste 10 Noroeste 0 -- -- 72
2020-03-11 08:00:00 11.7 3 Noroeste 10 Noroeste 0 -- -- 85
2020-03-11 07:00:00 10.3 0 Calma 8 Noroeste 0 -- -- 85
2020-03-11 06:00:00 10.7 4 Oeste 11 Noroeste 0 -- -- 80
2020-03-11 05:00:00 11.5 6 Oeste 11 Noroeste 0 -- -- 76
2020-03-11 04:00:00 13.4 6 Norte 10 Noroeste 0 -- -- 68
2020-03-11 03:00:00 13.7 6 Oeste 17 Noroeste 0 -- -- 67
2020-03-11 02:00:00 11.6 5 Noroeste 9 Sudeste 0 -- -- 79
2020-03-11 01:00:00 12.8 3 Noroeste 16 Noroeste 0 -- -- 77
2020-03-11 00:00:00 13.2 15 Noroeste 22 Noroeste 0 -- -- 78
2020-03-10 23:00:00 12.9 10 Noroeste 16 Norte 0 -- -- 80
2020-03-10 22:00:00 12.8 6 Noroeste 14 Noroeste 0 -- -- 81
2020-03-10 21:00:00 12.8 3 Noroeste 5 Noroeste 0 -- -- 80
2020-03-10 20:00:00 13.1 0 Calma 7 Noroeste 0 -- -- 79
2020-03-10 19:00:00 14.1 0 Calma 10 Sur 0 -- -- 77
2020-03-10 18:00:00 15 5 Sur 16 Sur 0 -- -- 71
2020-03-10 17:00:00 15.3 8 Sur 20 Sur 0 -- -- 73
2020-03-10 16:00:00 15.5 10 Sur 24 Sur 0 -- -- 73
2020-03-10 15:00:00 15.6 11 Sur 26 Sur 0 -- -- 70
2020-03-10 14:00:00 15.3 15 Sur 30 Sur 0 -- -- 72
2020-03-10 13:00:00 15.9 19 Sur 32 Sur 0 -- -- 67
2020-03-10 12:00:00 16 22 Sur 34 Sur 0 -- -- 65
2020-03-10 11:00:00 15.4 15 Sur 27 Sur 0 -- -- 67
2020-03-10 10:00:00 15.6 13 Sur 22 Sur 0 -- -- 64
2020-03-10 09:00:00 14.1 6 Sur 13 Sur 0 -- -- 64
2020-03-10 08:00:00 12.3 7 Oeste 12 Oeste 0 -- -- 68
2020-03-10 07:00:00 11.2 8 Oeste 14 Oeste 0 -- -- 57
2020-03-10 06:00:00 10.8 9 Noroeste 12 Noroeste 0 -- -- 59
2020-03-10 05:00:00 10.9 7 Noroeste 11 Noroeste 0 -- -- 57
2020-03-10 04:00:00 11 5 Oeste 17 Norte 0 -- -- 57
2020-03-10 03:00:00 13.8 6 Norte 19 Sudoeste 0 -- -- 47
2020-03-10 02:00:00 14.6 10 Oeste 53 Norte 0 -- -- 43
2020-03-10 01:00:00 15 26 Noroeste 62 Noroeste 0 -- -- 40
2020-03-10 00:00:00 14.7 35 Norte 57 Noroeste 0 -- -- 42